sensor_id;sensor_type;location;lat;lon;timestamp;P1;durP1;ratioP1;P2;durP2;ratioP2
9834;SDS011;69850;50.942;13.748;2023-05-29T00:02:40;7.47;;;4.50;;
9834;SDS011;69850;50.942;13.748;2023-05-29T00:06:04;9.02;;;4.40;;
9834;SDS011;69850;50.942;13.748;2023-05-29T00:09:26;9.00;;;4.68;;
9834;SDS011;69850;50.942;13.748;2023-05-29T00:12:46;10.45;;;5.07;;
9834;SDS011;69850;50.942;13.748;2023-05-29T00:16:07;8.77;;;5.07;;
9834;SDS011;69850;50.942;13.748;2023-05-29T00:19:29;8.60;;;5.00;;
9834;SDS011;69850;50.942;13.748;2023-05-29T00:22:50;9.65;;;5.13;;
9834;SDS011;69850;50.942;13.748;2023-05-29T00:26:10;8.70;;;4.88;;
9834;SDS011;69850;50.942;13.748;2023-05-29T00:29:32;8.30;;;4.38;;
9834;SDS011;69850;50.942;13.748;2023-05-29T00:32:53;10.02;;;4.70;;
9834;SDS011;69850;50.942;13.748;2023-05-29T00:36:14;8.93;;;4.78;;
9834;SDS011;69850;50.942;13.748;2023-05-29T00:39:34;10.48;;;4.82;;
9834;SDS011;69850;50.942;13.748;2023-05-29T00:42:55;7.68;;;4.70;;
9834;SDS011;69850;50.942;13.748;2023-05-29T00:46:16;7.82;;;4.65;;
9834;SDS011;69850;50.942;13.748;2023-05-29T00:49:37;8.80;;;5.28;;
9834;SDS011;69850;50.942;13.748;2023-05-29T00:53:01;7.68;;;4.80;;
9834;SDS011;69850;50.942;13.748;2023-05-29T00:56:22;10.70;;;5.10;;
9834;SDS011;69850;50.942;13.748;2023-05-29T00:59:42;9.30;;;5.10;;
9834;SDS011;69850;50.942;13.748;2023-05-29T01:03:04;8.40;;;5.00;;
9834;SDS011;69850;50.942;13.748;2023-05-29T01:06:25;8.52;;;4.78;;
9834;SDS011;69850;50.942;13.748;2023-05-29T01:09:45;6.28;;;4.47;;
9834;SDS011;69850;50.942;13.748;2023-05-29T01:13:07;8.80;;;4.65;;
9834;SDS011;69850;50.942;13.748;2023-05-29T01:20:26;9.65;;;5.40;;
9834;SDS011;69850;50.942;13.748;2023-05-29T01:24:08;8.43;;;4.50;;
9834;SDS011;69850;50.942;13.748;2023-05-29T01:27:36;7.35;;;4.55;;
9834;SDS011;69850;50.942;13.748;2023-05-29T01:30:57;7.18;;;4.15;;
9834;SDS011;69850;50.942;13.748;2023-05-29T01:34:19;9.52;;;4.97;;
9834;SDS011;69850;50.942;13.748;2023-05-29T01:37:39;10.35;;;5.20;;
9834;SDS011;69850;50.942;13.748;2023-05-29T01:41:01;9.85;;;5.22;;
9834;SDS011;69850;50.942;13.748;2023-05-29T01:44:22;8.38;;;5.05;;
9834;SDS011;69850;50.942;13.748;2023-05-29T01:47:43;9.52;;;4.93;;
9834;SDS011;69850;50.942;13.748;2023-05-29T01:51:05;7.28;;;4.55;;
9834;SDS011;69850;50.942;13.748;2023-05-29T01:54:27;8.68;;;4.70;;
9834;SDS011;69850;50.942;13.748;2023-05-29T01:57:47;11.40;;;4.82;;
9834;SDS011;69850;50.942;13.748;2023-05-29T02:01:09;10.68;;;4.82;;
9834;SDS011;69850;50.942;13.748;2023-05-29T02:04:30;7.97;;;4.50;;
9834;SDS011;69850;50.942;13.748;2023-05-29T02:07:51;7.18;;;4.38;;
9834;SDS011;69850;50.942;13.748;2023-05-29T02:11:12;9.93;;;4.30;;
9834;SDS011;69850;50.942;13.748;2023-05-29T02:14:33;9.80;;;4.55;;
9834;SDS011;69850;50.942;13.748;2023-05-29T02:17:54;8.02;;;4.80;;
9834;SDS011;69850;50.942;13.748;2023-05-29T02:21:15;8.82;;;4.88;;
9834;SDS011;69850;50.942;13.748;2023-05-29T02:24:37;10.80;;;4.80;;
9834;SDS011;69850;50.942;13.748;2023-05-29T02:27:57;10.32;;;4.63;;
9834;SDS011;69850;50.942;13.748;2023-05-29T02:31:18;10.30;;;5.07;;
9834;SDS011;69850;50.942;13.748;2023-05-29T02:34:38;9.32;;;4.95;;
9834;SDS011;69850;50.942;13.748;2023-05-29T02:37:59;8.00;;;5.10;;
9834;SDS011;69850;50.942;13.748;2023-05-29T02:41:20;8.27;;;5.50;;
9834;SDS011;69850;50.942;13.748;2023-05-29T02:44:41;11.88;;;5.05;;
9834;SDS011;69850;50.942;13.748;2023-05-29T02:48:01;10.45;;;5.13;;
9834;SDS011;69850;50.942;13.748;2023-05-29T02:51:23;9.45;;;4.97;;
9834;SDS011;69850;50.942;13.748;2023-05-29T02:54:44;6.85;;;5.05;;
9834;SDS011;69850;50.942;13.748;2023-05-29T02:58:05;7.82;;;4.88;;
9834;SDS011;69850;50.942;13.748;2023-05-29T03:01:26;7.57;;;4.70;;
9834;SDS011;69850;50.942;13.748;2023-05-29T03:04:48;6.03;;;4.22;;
9834;SDS011;69850;50.942;13.748;2023-05-29T03:08:13;7.45;;;4.82;;
9834;SDS011;69850;50.942;13.748;2023-05-29T03:11:37;8.32;;;4.57;;
9834;SDS011;69850;50.942;13.748;2023-05-29T03:14:58;8.13;;;5.00;;
9834;SDS011;69850;50.942;13.748;2023-05-29T03:18:20;7.28;;;4.40;;
9834;SDS011;69850;50.942;13.748;2023-05-29T03:21:41;9.23;;;4.57;;
9834;SDS011;69850;50.942;13.748;2023-05-29T03:25:02;10.88;;;4.45;;
9834;SDS011;69850;50.942;13.748;2023-05-29T03:28:23;7.60;;;4.50;;
9834;SDS011;69850;50.942;13.748;2023-05-29T03:31:44;8.93;;;4.63;;
9834;SDS011;69850;50.942;13.748;2023-05-29T03:35:11;6.43;;;4.13;;
9834;SDS011;69850;50.942;13.748;2023-05-29T03:38:34;5.60;;;3.53;;
9834;SDS011;69850;50.942;13.748;2023-05-29T03:41:56;7.07;;;3.95;;
9834;SDS011;69850;50.942;13.748;2023-05-29T03:45:17;8.65;;;3.55;;
9834;SDS011;69850;50.942;13.748;2023-05-29T03:48:38;4.53;;;3.15;;
9834;SDS011;69850;50.942;13.748;2023-05-29T03:51:59;5.05;;;2.70;;
9834;SDS011;69850;50.942;13.748;2023-05-29T03:55:19;6.03;;;3.08;;
9834;SDS011;69850;50.942;13.748;2023-05-29T03:58:40;5.38;;;2.78;;
9834;SDS011;69850;50.942;13.748;2023-05-29T04:02:02;5.15;;;2.75;;
9834;SDS011;69850;50.942;13.748;2023-05-29T04:05:23;3.60;;;2.70;;
9834;SDS011;69850;50.942;13.748;2023-05-29T04:08:44;4.43;;;2.88;;
9834;SDS011;69850;50.942;13.748;2023-05-29T04:12:05;5.65;;;2.78;;
9834;SDS011;69850;50.942;13.748;2023-05-29T04:15:27;5.95;;;2.88;;
9834;SDS011;69850;50.942;13.748;2023-05-29T04:18:49;6.05;;;3.15;;
9834;SDS011;69850;50.942;13.748;2023-05-29T04:22:11;4.75;;;2.88;;
9834;SDS011;69850;50.942;13.748;2023-05-29T04:25:32;3.97;;;2.50;;
9834;SDS011;69850;50.942;13.748;2023-05-29T04:28:54;3.47;;;2.40;;
9834;SDS011;69850;50.942;13.748;2023-05-29T04:32:18;5.70;;;2.67;;
9834;SDS011;69850;50.942;13.748;2023-05-29T04:35:39;4.07;;;2.72;;
9834;SDS011;69850;50.942;13.748;2023-05-29T04:39:03;4.38;;;2.78;;
9834;SDS011;69850;50.942;13.748;2023-05-29T04:42:24;5.30;;;2.65;;
9834;SDS011;69850;50.942;13.748;2023-05-29T04:45:46;4.80;;;2.78;;
9834;SDS011;69850;50.942;13.748;2023-05-29T04:49:08;5.22;;;3.15;;
9834;SDS011;69850;50.942;13.748;2023-05-29T04:52:30;5.15;;;3.65;;
9834;SDS011;69850;50.942;13.748;2023-05-29T04:55:52;4.60;;;2.60;;
9834;SDS011;69850;50.942;13.748;2023-05-29T04:59:14;3.50;;;3.00;;
9834;SDS011;69850;50.942;13.748;2023-05-29T05:02:35;4.95;;;2.97;;
9834;SDS011;69850;50.942;13.748;2023-05-29T05:05:57;4.50;;;2.97;;
9834;SDS011;69850;50.942;13.748;2023-05-29T05:09:18;4.68;;;3.03;;
9834;SDS011;69850;50.942;13.748;2023-05-29T05:12:38;4.93;;;3.28;;
9834;SDS011;69850;50.942;13.748;2023-05-29T05:15:59;4.82;;;3.13;;
9834;SDS011;69850;50.942;13.748;2023-05-29T05:19:21;6.97;;;3.50;;
9834;SDS011;69850;50.942;13.748;2023-05-29T05:22:42;8.48;;;3.42;;
9834;SDS011;69850;50.942;13.748;2023-05-29T05:26:03;4.88;;;3.03;;
9834;SDS011;69850;50.942;13.748;2023-05-29T05:29:27;4.68;;;3.30;;
9834;SDS011;69850;50.942;13.748;2023-05-29T05:32:47;6.82;;;3.53;;
9834;SDS011;69850;50.942;13.748;2023-05-29T05:36:09;6.32;;;3.33;;
9834;SDS011;69850;50.942;13.748;2023-05-29T05:39:32;5.82;;;3.40;;
9834;SDS011;69850;50.942;13.748;2023-05-29T05:42:54;7.50;;;3.83;;
9834;SDS011;69850;50.942;13.748;2023-05-29T05:46:24;5.20;;;3.58;;
9834;SDS011;69850;50.942;13.748;2023-05-29T05:49:45;6.40;;;3.75;;
9834;SDS011;69850;50.942;13.748;2023-05-29T05:53:07;7.43;;;3.65;;
9834;SDS011;69850;50.942;13.748;2023-05-29T05:56:27;6.40;;;4.72;;
9834;SDS011;69850;50.942;13.748;2023-05-29T05:59:48;5.88;;;4.07;;
9834;SDS011;69850;50.942;13.748;2023-05-29T06:03:09;4.40;;;3.70;;
9834;SDS011;69850;50.942;13.748;2023-05-29T06:06:45;5.47;;;3.80;;
9834;SDS011;69850;50.942;13.748;2023-05-29T06:10:05;4.60;;;3.53;;
9834;SDS011;69850;50.942;13.748;2023-05-29T06:13:26;5.47;;;3.70;;
9834;SDS011;69850;50.942;13.748;2023-05-29T06:16:52;7.10;;;4.00;;
9834;SDS011;69850;50.942;13.748;2023-05-29T06:20:13;6.65;;;4.60;;
9834;SDS011;69850;50.942;13.748;2023-05-29T06:23:35;8.07;;;4.20;;
9834;SDS011;69850;50.942;13.748;2023-05-29T06:26:56;6.57;;;4.38;;
9834;SDS011;69850;50.942;13.748;2023-05-29T06:30:17;6.10;;;4.45;;
9834;SDS011;69850;50.942;13.748;2023-05-29T06:33:38;8.68;;;4.25;;
9834;SDS011;69850;50.942;13.748;2023-05-29T06:36:59;7.88;;;4.35;;
9834;SDS011;69850;50.942;13.748;2023-05-29T06:40:20;5.55;;;4.10;;
9834;SDS011;69850;50.942;13.748;2023-05-29T06:43:41;11.07;;;4.25;;
9834;SDS011;69850;50.942;13.748;2023-05-29T06:47:03;4.70;;;4.03;;
9834;SDS011;69850;50.942;13.748;2023-05-29T06:50:25;5.63;;;3.92;;
9834;SDS011;69850;50.942;13.748;2023-05-29T06:53:46;8.57;;;4.10;;
9834;SDS011;69850;50.942;13.748;2023-05-29T06:57:07;7.75;;;4.20;;
9834;SDS011;69850;50.942;13.748;2023-05-29T07:00:28;7.40;;;4.30;;
9834;SDS011;69850;50.942;13.748;2023-05-29T07:04:14;5.78;;;4.15;;
9834;SDS011;69850;50.942;13.748;2023-05-29T07:07:34;5.13;;;3.72;;
9834;SDS011;69850;50.942;13.748;2023-05-29T07:10:55;5.22;;;3.65;;
9834;SDS011;69850;50.942;13.748;2023-05-29T07:14:18;7.45;;;4.00;;
9834;SDS011;69850;50.942;13.748;2023-05-29T07:17:39;6.57;;;3.60;;
9834;SDS011;69850;50.942;13.748;2023-05-29T07:21:09;6.15;;;4.00;;
9834;SDS011;69850;50.942;13.748;2023-05-29T07:24:30;6.30;;;3.88;;
9834;SDS011;69850;50.942;13.748;2023-05-29T07:27:51;5.63;;;4.03;;
9834;SDS011;69850;50.942;13.748;2023-05-29T07:31:13;5.93;;;3.85;;
9834;SDS011;69850;50.942;13.748;2023-05-29T07:34:34;4.85;;;3.65;;
9834;SDS011;69850;50.942;13.748;2023-05-29T07:37:55;7.30;;;3.97;;
9834;SDS011;69850;50.942;13.748;2023-05-29T07:41:18;7.40;;;3.70;;
9834;SDS011;69850;50.942;13.748;2023-05-29T07:44:45;5.30;;;3.40;;
9834;SDS011;69850;50.942;13.748;2023-05-29T07:48:06;4.90;;;3.58;;
9834;SDS011;69850;50.942;13.748;2023-05-29T07:51:26;5.97;;;3.80;;
9834;SDS011;69850;50.942;13.748;2023-05-29T07:54:48;6.82;;;3.90;;
9834;SDS011;69850;50.942;13.748;2023-05-29T07:58:09;7.28;;;3.50;;
9834;SDS011;69850;50.942;13.748;2023-05-29T08:01:31;7.97;;;3.30;;
9834;SDS011;69850;50.942;13.748;2023-05-29T08:04:52;4.55;;;2.95;;
9834;SDS011;69850;50.942;13.748;2023-05-29T08:08:13;4.90;;;3.17;;
9834;SDS011;69850;50.942;13.748;2023-05-29T08:11:35;6.60;;;3.65;;
9834;SDS011;69850;50.942;13.748;2023-05-29T08:14:57;6.78;;;3.40;;
9834;SDS011;69850;50.942;13.748;2023-05-29T08:18:17;6.63;;;3.08;;
9834;SDS011;69850;50.942;13.748;2023-05-29T08:21:38;6.55;;;3.58;;
9834;SDS011;69850;50.942;13.748;2023-05-29T08:24:59;8.45;;;3.42;;
9834;SDS011;69850;50.942;13.748;2023-05-29T08:28:20;6.68;;;3.35;;
9834;SDS011;69850;50.942;13.748;2023-05-29T08:31:41;5.18;;;3.08;;
9834;SDS011;69850;50.942;13.748;2023-05-29T08:35:02;6.85;;;3.97;;
9834;SDS011;69850;50.942;13.748;2023-05-29T08:38:24;7.50;;;3.90;;
9834;SDS011;69850;50.942;13.748;2023-05-29T08:45:15;7.50;;;3.47;;
9834;SDS011;69850;50.942;13.748;2023-05-29T08:48:38;3.97;;;2.85;;
9834;SDS011;69850;50.942;13.748;2023-05-29T08:52:08;4.50;;;3.05;;
9834;SDS011;69850;50.942;13.748;2023-05-29T08:55:32;10.20;;;3.92;;
9834;SDS011;69850;50.942;13.748;2023-05-29T08:58:53;6.63;;;3.25;;
9834;SDS011;69850;50.942;13.748;2023-05-29T09:02:14;6.07;;;3.35;;
9834;SDS011;69850;50.942;13.748;2023-05-29T09:05:35;4.72;;;3.60;;
9834;SDS011;69850;50.942;13.748;2023-05-29T09:09:00;5.75;;;3.53;;
9834;SDS011;69850;50.942;13.748;2023-05-29T09:12:21;6.80;;;4.18;;
9834;SDS011;69850;50.942;13.748;2023-05-29T09:15:42;6.47;;;3.60;;
9834;SDS011;69850;50.942;13.748;2023-05-29T09:19:06;5.65;;;3.95;;
9834;SDS011;69850;50.942;13.748;2023-05-29T09:22:27;7.40;;;3.55;;
9834;SDS011;69850;50.942;13.748;2023-05-29T09:25:50;6.95;;;4.00;;
9834;SDS011;69850;50.942;13.748;2023-05-29T09:29:13;4.90;;;2.35;;
9834;SDS011;69850;50.942;13.748;2023-05-29T09:32:33;4.47;;;2.92;;
9834;SDS011;69850;50.942;13.748;2023-05-29T09:35:54;6.07;;;3.38;;
9834;SDS011;69850;50.942;13.748;2023-05-29T09:39:14;7.55;;;4.10;;
9834;SDS011;69850;50.942;13.748;2023-05-29T09:42:36;1.70;;;1.27;;
9834;SDS011;69850;50.942;13.748;2023-05-29T09:45:57;4.97;;;3.55;;
9834;SDS011;69850;50.942;13.748;2023-05-29T09:49:20;6.30;;;3.90;;
9834;SDS011;69850;50.942;13.748;2023-05-29T09:52:42;5.03;;;3.33;;
9834;SDS011;69850;50.942;13.748;2023-05-29T09:56:04;5.90;;;3.50;;
9834;SDS011;69850;50.942;13.748;2023-05-29T09:59:25;6.07;;;3.53;;
9834;SDS011;69850;50.942;13.748;2023-05-29T10:02:46;5.63;;;3.10;;
9834;SDS011;69850;50.942;13.748;2023-05-29T10:06:10;4.95;;;3.00;;
9834;SDS011;69850;50.942;13.748;2023-05-29T10:09:33;5.00;;;3.25;;
9834;SDS011;69850;50.942;13.748;2023-05-29T10:12:55;6.05;;;3.40;;
9834;SDS011;69850;50.942;13.748;2023-05-29T10:16:16;5.63;;;3.05;;
9834;SDS011;69850;50.942;13.748;2023-05-29T10:19:40;4.97;;;3.22;;
9834;SDS011;69850;50.942;13.748;2023-05-29T10:23:02;7.45;;;3.85;;
9834;SDS011;69850;50.942;13.748;2023-05-29T10:26:27;5.68;;;2.80;;
9834;SDS011;69850;50.942;13.748;2023-05-29T10:29:53;4.85;;;2.78;;
9834;SDS011;69850;50.942;13.748;2023-05-29T10:40:45;4.88;;;2.70;;
9834;SDS011;69850;50.942;13.748;2023-05-29T10:51:27;5.80;;;2.65;;
9834;SDS011;69850;50.942;13.748;2023-05-29T10:54:55;6.10;;;2.90;;
9834;SDS011;69850;50.942;13.748;2023-05-29T10:58:23;4.40;;;2.50;;
9834;SDS011;69850;50.942;13.748;2023-05-29T11:01:45;6.32;;;2.83;;
9834;SDS011;69850;50.942;13.748;2023-05-29T11:12:24;8.18;;;2.85;;
9834;SDS011;69850;50.942;13.748;2023-05-29T11:19:33;6.50;;;3.00;;
9834;SDS011;69850;50.942;13.748;2023-05-29T11:26:22;5.10;;;3.45;;
9834;SDS011;69850;50.942;13.748;2023-05-29T11:29:43;6.13;;;3.20;;
9834;SDS011;69850;50.942;13.748;2023-05-29T11:33:05;4.18;;;3.13;;
9834;SDS011;69850;50.942;13.748;2023-05-29T11:36:28;4.82;;;3.03;;
9834;SDS011;69850;50.942;13.748;2023-05-29T11:39:48;7.57;;;3.10;;
9834;SDS011;69850;50.942;13.748;2023-05-29T11:43:11;5.45;;;3.20;;
9834;SDS011;69850;50.942;13.748;2023-05-29T11:46:32;4.05;;;2.53;;
9834;SDS011;69850;50.942;13.748;2023-05-29T11:49:54;5.18;;;2.80;;
9834;SDS011;69850;50.942;13.748;2023-05-29T11:53:14;5.95;;;1.90;;
9834;SDS011;69850;50.942;13.748;2023-05-29T11:56:35;6.20;;;2.97;;
9834;SDS011;69850;50.942;13.748;2023-05-29T11:59:56;6.65;;;2.90;;
9834;SDS011;69850;50.942;13.748;2023-05-29T12:03:19;4.70;;;3.20;;
9834;SDS011;69850;50.942;13.748;2023-05-29T12:06:39;6.47;;;3.08;;
9834;SDS011;69850;50.942;13.748;2023-05-29T12:10:11;4.20;;;2.30;;
9834;SDS011;69850;50.942;13.748;2023-05-29T12:13:33;4.07;;;2.65;;
9834;SDS011;69850;50.942;13.748;2023-05-29T12:16:54;4.53;;;2.88;;
9834;SDS011;69850;50.942;13.748;2023-05-29T12:20:14;6.03;;;2.97;;
9834;SDS011;69850;50.942;13.748;2023-05-29T12:23:37;5.70;;;3.20;;
9834;SDS011;69850;50.942;13.748;2023-05-29T12:26:57;5.53;;;3.20;;
9834;SDS011;69850;50.942;13.748;2023-05-29T12:33:40;5.28;;;3.08;;
9834;SDS011;69850;50.942;13.748;2023-05-29T12:37:07;5.50;;;3.90;;
9834;SDS011;69850;50.942;13.748;2023-05-29T12:40:30;7.43;;;3.42;;
9834;SDS011;69850;50.942;13.748;2023-05-29T12:43:56;7.30;;;3.50;;
9834;SDS011;69850;50.942;13.748;2023-05-29T12:47:23;5.40;;;2.97;;
9834;SDS011;69850;50.942;13.748;2023-05-29T12:50:45;5.32;;;3.20;;
9834;SDS011;69850;50.942;13.748;2023-05-29T12:54:09;6.28;;;3.50;;
9834;SDS011;69850;50.942;13.748;2023-05-29T12:57:31;5.72;;;3.40;;
9834;SDS011;69850;50.942;13.748;2023-05-29T13:00:52;7.55;;;3.22;;
9834;SDS011;69850;50.942;13.748;2023-05-29T13:04:16;5.50;;;3.10;;
9834;SDS011;69850;50.942;13.748;2023-05-29T13:07:38;5.80;;;3.53;;
9834;SDS011;69850;50.942;13.748;2023-05-29T13:10:59;6.80;;;3.10;;
9834;SDS011;69850;50.942;13.748;2023-05-29T13:14:20;5.85;;;2.95;;
9834;SDS011;69850;50.942;13.748;2023-05-29T13:17:40;4.97;;;2.80;;
9834;SDS011;69850;50.942;13.748;2023-05-29T13:21:01;7.22;;;3.63;;
9834;SDS011;69850;50.942;13.748;2023-05-29T13:24:22;6.18;;;3.60;;
9834;SDS011;69850;50.942;13.748;2023-05-29T13:27:44;7.50;;;3.55;;
9834;SDS011;69850;50.942;13.748;2023-05-29T13:31:05;8.32;;;4.50;;
9834;SDS011;69850;50.942;13.748;2023-05-29T13:34:26;4.80;;;3.40;;
9834;SDS011;69850;50.942;13.748;2023-05-29T13:37:49;4.47;;;3.05;;
9834;SDS011;69850;50.942;13.748;2023-05-29T13:41:10;5.53;;;3.08;;
9834;SDS011;69850;50.942;13.748;2023-05-29T13:44:30;6.38;;;3.20;;
9834;SDS011;69850;50.942;13.748;2023-05-29T13:47:51;5.82;;;3.40;;
9834;SDS011;69850;50.942;13.748;2023-05-29T13:51:12;4.88;;;2.75;;
9834;SDS011;69850;50.942;13.748;2023-05-29T13:54:32;4.68;;;2.92;;
9834;SDS011;69850;50.942;13.748;2023-05-29T13:57:56;4.32;;;2.97;;
9834;SDS011;69850;50.942;13.748;2023-05-29T14:01:18;4.38;;;2.92;;
9834;SDS011;69850;50.942;13.748;2023-05-29T14:04:39;4.38;;;2.67;;
9834;SDS011;69850;50.942;13.748;2023-05-29T14:08:03;6.65;;;3.10;;
9834;SDS011;69850;50.942;13.748;2023-05-29T14:11:23;7.60;;;3.10;;
9834;SDS011;69850;50.942;13.748;2023-05-29T14:14:45;6.72;;;3.38;;
9834;SDS011;69850;50.942;13.748;2023-05-29T14:18:06;5.65;;;3.35;;
9834;SDS011;69850;50.942;13.748;2023-05-29T14:21:28;7.22;;;3.80;;
9834;SDS011;69850;50.942;13.748;2023-05-29T14:24:48;5.45;;;3.30;;
9834;SDS011;69850;50.942;13.748;2023-05-29T14:28:09;5.88;;;3.13;;
9834;SDS011;69850;50.942;13.748;2023-05-29T14:31:30;5.60;;;3.28;;
9834;SDS011;69850;50.942;13.748;2023-05-29T14:34:51;5.88;;;3.60;;
9834;SDS011;69850;50.942;13.748;2023-05-29T14:38:12;7.03;;;3.50;;
9834;SDS011;69850;50.942;13.748;2023-05-29T14:41:33;8.23;;;4.75;;
9834;SDS011;69850;50.942;13.748;2023-05-29T14:44:55;6.72;;;3.85;;
9834;SDS011;69850;50.942;13.748;2023-05-29T14:48:15;7.53;;;3.80;;
9834;SDS011;69850;50.942;13.748;2023-05-29T14:51:36;9.50;;;4.00;;
9834;SDS011;69850;50.942;13.748;2023-05-29T14:54:57;8.20;;;3.67;;
9834;SDS011;69850;50.942;13.748;2023-05-29T14:58:18;5.53;;;3.20;;
9834;SDS011;69850;50.942;13.748;2023-05-29T15:01:38;6.38;;;3.97;;
9834;SDS011;69850;50.942;13.748;2023-05-29T15:04:59;6.22;;;3.92;;
9834;SDS011;69850;50.942;13.748;2023-05-29T15:08:20;8.77;;;3.50;;
9834;SDS011;69850;50.942;13.748;2023-05-29T15:11:40;4.75;;;3.08;;
9834;SDS011;69850;50.942;13.748;2023-05-29T15:15:02;4.78;;;2.97;;
9834;SDS011;69850;50.942;13.748;2023-05-29T15:18:23;5.47;;;2.70;;
9834;SDS011;69850;50.942;13.748;2023-05-29T15:21:44;6.45;;;3.60;;
9834;SDS011;69850;50.942;13.748;2023-05-29T15:25:04;4.90;;;3.30;;
9834;SDS011;69850;50.942;13.748;2023-05-29T15:28:25;8.02;;;4.05;;
9834;SDS011;69850;50.942;13.748;2023-05-29T15:31:45;6.53;;;3.60;;
9834;SDS011;69850;50.942;13.748;2023-05-29T15:35:07;6.38;;;3.22;;
9834;SDS011;69850;50.942;13.748;2023-05-29T15:38:28;6.90;;;3.65;;
9834;SDS011;69850;50.942;13.748;2023-05-29T15:41:52;7.45;;;3.35;;
9834;SDS011;69850;50.942;13.748;2023-05-29T15:45:13;5.07;;;2.88;;
9834;SDS011;69850;50.942;13.748;2023-05-29T15:48:34;4.65;;;2.75;;
9834;SDS011;69850;50.942;13.748;2023-05-29T15:51:55;6.75;;;3.60;;
9834;SDS011;69850;50.942;13.748;2023-05-29T15:55:16;3.10;;;1.17;;
9834;SDS011;69850;50.942;13.748;2023-05-29T15:58:37;4.28;;;2.47;;
9834;SDS011;69850;50.942;13.748;2023-05-29T16:01:57;5.50;;;2.97;;
9834;SDS011;69850;50.942;13.748;2023-05-29T16:05:18;4.60;;;3.05;;
9834;SDS011;69850;50.942;13.748;2023-05-29T16:08:39;5.35;;;3.67;;
9834;SDS011;69850;50.942;13.748;2023-05-29T16:12:02;6.82;;;3.25;;
9834;SDS011;69850;50.942;13.748;2023-05-29T16:15:22;7.32;;;3.78;;
9834;SDS011;69850;50.942;13.748;2023-05-29T16:18:43;9.38;;;3.15;;
9834;SDS011;69850;50.942;13.748;2023-05-29T16:22:03;6.65;;;4.05;;
9834;SDS011;69850;50.942;13.748;2023-05-29T16:25:24;8.10;;;4.05;;
9834;SDS011;69850;50.942;13.748;2023-05-29T16:28:45;8.82;;;4.82;;
9834;SDS011;69850;50.942;13.748;2023-05-29T16:32:05;6.20;;;3.13;;
9834;SDS011;69850;50.942;13.748;2023-05-29T16:35:26;8.10;;;4.90;;
9834;SDS011;69850;50.942;13.748;2023-05-29T16:38:47;7.68;;;4.75;;
9834;SDS011;69850;50.942;13.748;2023-05-29T16:42:07;6.53;;;3.70;;
9834;SDS011;69850;50.942;13.748;2023-05-29T16:45:29;6.95;;;4.40;;
9834;SDS011;69850;50.942;13.748;2023-05-29T16:48:49;7.18;;;4.25;;
9834;SDS011;69850;50.942;13.748;2023-05-29T16:52:10;7.38;;;4.43;;
9834;SDS011;69850;50.942;13.748;2023-05-29T16:55:31;3.88;;;1.98;;
9834;SDS011;69850;50.942;13.748;2023-05-29T16:58:51;3.25;;;2.67;;
9834;SDS011;69850;50.942;13.748;2023-05-29T17:02:12;6.95;;;4.30;;
9834;SDS011;69850;50.942;13.748;2023-05-29T17:05:33;4.10;;;2.90;;
9834;SDS011;69850;50.942;13.748;2023-05-29T17:08:54;5.78;;;3.35;;
9834;SDS011;69850;50.942;13.748;2023-05-29T17:12:14;6.93;;;3.60;;
9834;SDS011;69850;50.942;13.748;2023-05-29T17:15:35;5.20;;;3.25;;
9834;SDS011;69850;50.942;13.748;2023-05-29T17:18:55;5.18;;;3.03;;
9834;SDS011;69850;50.942;13.748;2023-05-29T17:22:16;2.40;;;1.77;;
9834;SDS011;69850;50.942;13.748;2023-05-29T17:25:36;5.57;;;3.30;;
9834;SDS011;69850;50.942;13.748;2023-05-29T17:28:57;4.07;;;2.47;;
9834;SDS011;69850;50.942;13.748;2023-05-29T17:32:18;7.25;;;3.47;;
9834;SDS011;69850;50.942;13.748;2023-05-29T17:35:39;3.83;;;2.30;;
9834;SDS011;69850;50.942;13.748;2023-05-29T17:39:00;5.00;;;3.17;;
9834;SDS011;69850;50.942;13.748;2023-05-29T17:42:20;4.70;;;3.42;;
9834;SDS011;69850;50.942;13.748;2023-05-29T17:45:41;6.68;;;3.38;;
9834;SDS011;69850;50.942;13.748;2023-05-29T17:49:01;6.07;;;3.40;;
9834;SDS011;69850;50.942;13.748;2023-05-29T17:52:22;7.32;;;3.35;;
9834;SDS011;69850;50.942;13.748;2023-05-29T17:55:43;5.25;;;3.60;;
9834;SDS011;69850;50.942;13.748;2023-05-29T17:59:04;4.90;;;3.30;;
9834;SDS011;69850;50.942;13.748;2023-05-29T18:02:25;7.22;;;3.63;;
9834;SDS011;69850;50.942;13.748;2023-05-29T18:05:46;5.88;;;3.67;;
9834;SDS011;69850;50.942;13.748;2023-05-29T18:09:06;5.88;;;3.38;;
9834;SDS011;69850;50.942;13.748;2023-05-29T18:12:29;5.40;;;3.20;;
9834;SDS011;69850;50.942;13.748;2023-05-29T18:15:49;5.60;;;3.53;;
9834;SDS011;69850;50.942;13.748;2023-05-29T18:19:10;6.82;;;3.30;;
9834;SDS011;69850;50.942;13.748;2023-05-29T18:22:31;5.15;;;3.60;;
9834;SDS011;69850;50.942;13.748;2023-05-29T18:25:51;6.40;;;4.00;;
9834;SDS011;69850;50.942;13.748;2023-05-29T18:29:12;5.47;;;3.70;;
9834;SDS011;69850;50.942;13.748;2023-05-29T18:32:33;5.32;;;3.30;;
9834;SDS011;69850;50.942;13.748;2023-05-29T18:35:56;6.35;;;3.95;;
9834;SDS011;69850;50.942;13.748;2023-05-29T18:39:17;6.80;;;3.53;;
9834;SDS011;69850;50.942;13.748;2023-05-29T18:42:39;6.65;;;3.83;;
9834;SDS011;69850;50.942;13.748;2023-05-29T18:45:59;7.15;;;3.63;;
9834;SDS011;69850;50.942;13.748;2023-05-29T18:49:21;7.72;;;4.30;;
9834;SDS011;69850;50.942;13.748;2023-05-29T18:52:42;12.90;;;4.00;;
9834;SDS011;69850;50.942;13.748;2023-05-29T18:56:02;5.68;;;3.45;;
9834;SDS011;69850;50.942;13.748;2023-05-29T18:59:23;7.43;;;3.83;;
9834;SDS011;69850;50.942;13.748;2023-05-29T19:02:50;5.40;;;3.70;;
9834;SDS011;69850;50.942;13.748;2023-05-29T19:06:11;6.22;;;3.55;;
9834;SDS011;69850;50.942;13.748;2023-05-29T19:09:32;6.43;;;3.55;;
9834;SDS011;69850;50.942;13.748;2023-05-29T19:12:53;5.05;;;3.22;;
9834;SDS011;69850;50.942;13.748;2023-05-29T19:16:14;7.20;;;3.50;;
9834;SDS011;69850;50.942;13.748;2023-05-29T19:19:34;10.95;;;3.50;;
9834;SDS011;69850;50.942;13.748;2023-05-29T19:23:01;6.03;;;3.70;;
9834;SDS011;69850;50.942;13.748;2023-05-29T19:26:24;8.13;;;3.70;;
9834;SDS011;69850;50.942;13.748;2023-05-29T19:29:45;5.25;;;4.00;;
9834;SDS011;69850;50.942;13.748;2023-05-29T19:33:05;7.53;;;4.88;;
9834;SDS011;69850;50.942;13.748;2023-05-29T19:36:26;6.47;;;4.13;;
9834;SDS011;69850;50.942;13.748;2023-05-29T19:39:46;6.85;;;3.88;;
9834;SDS011;69850;50.942;13.748;2023-05-29T19:43:12;7.35;;;4.20;;
9834;SDS011;69850;50.942;13.748;2023-05-29T19:46:35;8.90;;;4.07;;
9834;SDS011;69850;50.942;13.748;2023-05-29T19:49:56;6.00;;;3.95;;
9834;SDS011;69850;50.942;13.748;2023-05-29T19:53:23;6.47;;;4.20;;
9834;SDS011;69850;50.942;13.748;2023-05-29T19:56:43;8.05;;;4.10;;
9834;SDS011;69850;50.942;13.748;2023-05-29T20:00:04;8.70;;;4.10;;
9834;SDS011;69850;50.942;13.748;2023-05-29T20:03:32;6.90;;;4.03;;
9834;SDS011;69850;50.942;13.748;2023-05-29T20:06:54;10.13;;;4.05;;
9834;SDS011;69850;50.942;13.748;2023-05-29T20:10:14;7.60;;;4.75;;
9834;SDS011;69850;50.942;13.748;2023-05-29T20:13:35;6.82;;;3.92;;
9834;SDS011;69850;50.942;13.748;2023-05-29T20:16:56;11.50;;;4.70;;
9834;SDS011;69850;50.942;13.748;2023-05-29T20:20:16;5.75;;;4.40;;
9834;SDS011;69850;50.942;13.748;2023-05-29T20:23:37;11.30;;;4.80;;
9834;SDS011;69850;50.942;13.748;2023-05-29T20:26:58;9.27;;;5.10;;
9834;SDS011;69850;50.942;13.748;2023-05-29T20:30:18;7.72;;;4.63;;
9834;SDS011;69850;50.942;13.748;2023-05-29T20:33:39;8.65;;;4.63;;
9834;SDS011;69850;50.942;13.748;2023-05-29T20:37:00;9.02;;;5.00;;
9834;SDS011;69850;50.942;13.748;2023-05-29T20:40:21;5.95;;;4.28;;
9834;SDS011;69850;50.942;13.748;2023-05-29T20:43:42;6.95;;;4.97;;
9834;SDS011;69850;50.942;13.748;2023-05-29T20:47:08;8.10;;;5.07;;
9834;SDS011;69850;50.942;13.748;2023-05-29T20:50:30;9.98;;;4.95;;
9834;SDS011;69850;50.942;13.748;2023-05-29T20:53:50;9.63;;;5.13;;
9834;SDS011;69850;50.942;13.748;2023-05-29T20:57:11;7.90;;;4.50;;